Time;durP1;ratioP1;P1;durP2;ratioP2;P2;SDS_P1;SDS_P2;PMS_P1;PMS_P2;Temp;Humidity;BMP_temperature;BMP_pressure;BME280_temperature;BME280_humidity;BME280_pressure;Samples;Min_cycle;Max_cycle;Signal;HPM_P1;HPM_P2
2023/11/17 00:00:12;;;;;;;4.97;1.00;;;12.50;92.70;;;;;;5044708;28;20064;-72
2023/11/17 00:02:38;;;;;;;1.58;0.60;;;12.50;92.80;;;;;;5048511;28;20443;-72
2023/11/17 00:05:04;;;;;;;2.60;0.70;;;12.50;92.80;;;;;;5045383;28;20033;-71
2023/11/17 00:07:30;;;;;;;2.88;0.77;;;12.50;92.60;;;;;;5045844;28;20643;-72
2023/11/17 00:09:56;;;;;;;1.67;0.60;;;12.40;92.90;;;;;;5046869;28;20040;-73
2023/11/17 00:12:22;;;;;;;4.57;1.23;;;12.40;92.60;;;;;;5046573;28;20044;-72
2023/11/17 00:14:48;;;;;;;2.58;1.40;;;12.30;92.90;;;;;;5046406;28;20403;-73
2023/11/17 00:17:14;;;;;;;2.80;1.07;;;12.40;93.00;;;;;;5046689;28;20033;-73
2023/11/17 00:19:39;;;;;;;1.33;0.60;;;12.40;92.80;;;;;;5046207;28;20345;-73
2023/11/17 00:22:05;;;;;;;3.87;1.53;;;12.30;93.00;;;;;;5046493;28;20033;-73
2023/11/17 00:24:31;;;;;;;2.20;0.80;;;12.30;92.80;;;;;;5037776;28;20123;-73
2023/11/17 00:26:57;;;;;;;3.63;0.83;;;12.30;93.00;;;;;;5046356;28;20036;-73
2023/11/17 00:29:22;;;;;;;3.30;0.75;;;12.30;93.00;;;;;;5045704;28;20799;-74
2023/11/17 00:31:48;;;;;;;2.53;0.53;;;12.20;92.80;;;;;;5046224;28;20675;-73
2023/11/17 00:34:14;;;;;;;1.03;0.47;;;12.30;92.90;;;;;;5046329;28;20024;-74
2023/11/17 00:36:46;;;;;;;2.15;0.80;;;12.20;92.90;;;;;;5044511;28;20030;-72
2023/11/17 00:39:14;;;;;;;3.25;0.55;;;12.20;93.00;;;;;;5045333;28;20464;-74
2023/11/17 00:41:43;;;;;;;4.47;0.80;;;12.20;93.00;;;;;;5044538;28;20040;-73
2023/11/17 00:44:10;;;;;;;4.72;0.80;;;12.10;93.20;;;;;;5046190;28;20043;-73
2023/11/17 00:46:35;;;;;;;3.17;0.80;;;12.10;93.20;;;;;;5046164;28;20033;-73
2023/11/17 00:49:03;;;;;;;2.07;0.53;;;12.10;93.50;;;;;;5046232;28;20040;-71
2023/11/17 00:51:29;;;;;;;1.40;0.68;;;12.10;93.40;;;;;;5044648;28;20025;-74
2023/11/17 00:54:00;;;;;;;2.58;0.70;;;12.10;93.40;;;;;;5043874;28;20066;-75
2023/11/17 00:56:27;;;;;;;2.92;0.80;;;12.10;93.50;;;;;;5046358;28;20043;-74
2023/11/17 00:58:53;;;;;;;3.00;0.80;;;12.00;94.10;;;;;;5047282;28;20075;-75
2023/11/17 01:01:20;;;;;;;2.47;0.70;;;12.00;93.70;;;;;;5046245;28;20041;-72
2023/11/17 01:03:47;;;;;;;1.48;0.60;;;12.00;94.20;;;;;;5046002;28;20768;-77
2023/11/17 01:06:13;;;;;;;0.68;0.50;;;12.00;93.70;;;;;;5046483;28;20132;-74
2023/11/17 01:08:39;;;;;;;1.70;0.60;;;12.10;93.80;;;;;;5045830;28;20560;-74
2023/11/17 01:11:05;;;;;;;3.97;0.77;;;12.00;93.60;;;;;;5045354;28;20288;-73
2023/11/17 01:13:31;;;;;;;1.35;0.70;;;12.00;94.00;;;;;;5045053;28;20554;-73
2023/11/17 01:15:57;;;;;;;4.30;0.88;;;12.00;93.70;;;;;;5046089;28;20025;-71
2023/11/17 01:18:22;;;;;;;1.93;0.60;;;12.00;93.10;;;;;;5046436;28;20045;-72
2023/11/17 01:20:48;;;;;;;3.40;1.03;;;12.00;93.40;;;;;;5046154;28;20025;-72
2023/11/17 01:23:14;;;;;;;2.37;0.50;;;12.00;93.40;;;;;;5046454;28;20033;-71
2023/11/17 01:25:41;;;;;;;3.27;0.60;;;12.00;94.00;;;;;;5045894;28;20477;-72
2023/11/17 01:28:08;;;;;;;3.40;0.65;;;11.90;93.70;;;;;;5045854;28;20079;-72
2023/11/17 01:30:34;;;;;;;0.85;0.60;;;11.90;93.60;;;;;;5041233;28;20400;-71
2023/11/17 01:33:00;;;;;;;3.45;0.52;;;11.90;93.70;;;;;;5044103;28;20558;-72
2023/11/17 01:35:27;;;;;;;1.67;0.70;;;11.90;93.50;;;;;;5045699;28;20033;-71
2023/11/17 01:37:54;;;;;;;4.00;1.17;;;11.90;93.60;;;;;;5043818;28;20074;-71
2023/11/17 01:40:22;;;;;;;1.15;0.55;;;11.90;93.10;;;;;;5042141;28;20047;-72
2023/11/17 01:42:47;;;;;;;1.45;0.63;;;11.90;93.70;;;;;;5045642;28;20051;-71
2023/11/17 01:45:14;;;;;;;0.93;0.40;;;11.90;93.30;;;;;;5045178;28;20049;-71
2023/11/17 01:47:42;;;;;;;6.78;0.80;;;11.90;93.70;;;;;;5045558;28;20298;-71
2023/11/17 01:50:11;;;;;;;0.40;0.40;;;11.80;93.60;;;;;;5045208;28;20052;-72
2023/11/17 01:52:38;;;;;;;3.13;0.50;;;11.80;93.60;;;;;;5035290;28;20568;-71
2023/11/17 01:55:08;;;;;;;2.45;0.45;;;11.80;93.60;;;;;;5045670;28;20036;-72
2023/11/17 01:57:37;;;;;;;1.13;0.50;;;11.80;93.90;;;;;;5046016;28;20373;-72
2023/11/17 02:00:06;;;;;;;2.67;0.70;;;11.80;93.50;;;;;;5045531;28;20033;-71
2023/11/17 02:02:33;;;;;;;3.92;0.55;;;11.80;93.10;;;;;;5046508;28;20044;-72
2023/11/17 02:04:59;;;;;;;1.40;0.65;;;11.80;92.70;;;;;;5047294;28;20044;-73
2023/11/17 02:07:35;;;;;;;1.77;0.65;;;11.80;93.10;;;;;;5047290;28;20036;-73
2023/11/17 02:10:14;;;;;;;1.63;0.63;;;11.80;93.30;;;;;;5033201;28;20039;-71
2023/11/17 02:12:52;;;;;;;2.83;0.63;;;11.80;93.10;;;;;;5040671;28;20032;-72
2023/11/17 02:15:24;;;;;;;0.68;0.57;;;11.80;92.80;;;;;;5045505;28;20029;-70
2023/11/17 02:17:54;;;;;;;0.50;0.50;;;11.80;92.40;;;;;;5044951;28;20539;-71
2023/11/17 02:20:25;;;;;;;1.50;0.35;;;11.70;92.70;;;;;;5045315;28;20060;-72
2023/11/17 02:22:53;;;;;;;0.82;0.60;;;11.70;92.90;;;;;;5044219;28;20055;-72
2023/11/17 02:25:34;;;;;;;1.55;0.40;;;11.70;92.80;;;;;;5045289;28;20095;-71
2023/11/17 02:28:30;;;;;;;0.90;0.43;;;11.70;92.60;;;;;;5031259;28;20037;-71
2023/11/17 02:30:58;;;;;;;2.42;0.43;;;11.60;93.20;;;;;;5038072;28;20024;-71
2023/11/17 02:33:25;;;;;;;1.00;0.60;;;11.60;93.40;;;;;;5045028;28;20063;-72
2023/11/17 02:35:56;;;;;;;;;;;11.60;93.40;;;;;;5045552;28;20532;-72
2023/11/17 02:38:22;;;;;;;1.52;0.90;;;11.60;93.60;;;;;;5045580;28;20455;-71
2023/11/17 02:40:55;;;;;;;2.83;1.10;;;11.60;94.00;;;;;;5040082;28;20074;-72
2023/11/17 02:43:29;;;;;;;2.55;0.73;;;11.60;93.70;;;;;;5045027;28;20417;-71
2023/11/17 02:45:55;;;;;;;1.35;0.70;;;11.50;94.10;;;;;;5045522;28;20033;-72
2023/11/17 02:48:22;;;;;;;2.00;0.82;;;11.50;94.30;;;;;;5045125;28;20112;-75
2023/11/17 02:51:03;;;;;;;2.85;0.85;;;11.40;94.60;;;;;;5046164;28;20051;-74
2023/11/17 02:53:31;;;;;;;3.00;0.60;;;11.40;94.70;;;;;;5044362;28;20518;-74
2023/11/17 02:55:59;;;;;;;1.00;0.40;;;11.40;94.60;;;;;;5046012;28;20075;-73
2023/11/17 02:58:25;;;;;;;2.70;0.55;;;11.40;94.40;;;;;;5045629;28;20037;-72
2023/11/17 03:00:51;;;;;;;2.45;0.70;;;11.30;94.40;;;;;;5047391;28;20028;-73
2023/11/17 03:03:22;;;;;;;1.58;0.60;;;11.20;94.50;;;;;;5050003;28;20031;-73
2023/11/17 03:05:59;;;;;;;3.78;0.80;;;11.20;95.10;;;;;;5048185;28;20477;-73
2023/11/17 03:08:25;;;;;;;3.80;1.10;;;11.20;95.10;;;;;;5049346;28;20954;-73
2023/11/17 03:10:51;;;;;;;3.47;1.42;;;11.10;95.20;;;;;;5049475;28;20128;-73
2023/11/17 03:13:17;;;;;;;5.97;1.38;;;11.10;95.30;;;;;;5049901;28;20051;-73
2023/11/17 03:15:43;;;;;;;4.80;1.50;;;11.10;95.50;;;;;;5049343;28;20036;-72
2023/11/17 03:18:09;;;;;;;6.47;1.25;;;11.00;95.70;;;;;;5049492;28;20025;-72
2023/11/17 03:20:36;;;;;;;2.58;0.90;;;11.10;96.30;;;;;;5047426;28;20040;-71
2023/11/17 03:23:01;;;;;;;4.55;1.13;;;11.10;96.50;;;;;;5048548;28;20404;-73
2023/11/17 03:25:27;;;;;;;3.03;1.00;;;11.10;96.20;;;;;;5051038;28;20498;-73
2023/11/17 03:27:53;;;;;;;1.13;0.67;;;11.10;96.50;;;;;;5050625;28;20032;-73
2023/11/17 03:30:18;;;;;;;1.13;0.70;;;11.10;97.10;;;;;;5055145;28;20091;-73
2023/11/17 03:32:46;;;;;;;2.95;1.15;;;11.10;95.80;;;;;;5052050;28;20389;-73
2023/11/17 03:35:12;;;;;;;4.72;0.88;;;11.10;97.60;;;;;;5050664;28;20056;-73
2023/11/17 03:37:38;;;;;;;5.90;1.20;;;11.00;98.60;;;;;;5051076;28;20021;-72
2023/11/17 03:40:11;;;;;;;2.45;0.85;;;10.90;98.80;;;;;;5053897;28;20432;-73
2023/11/17 03:42:37;;;;;;;2.75;1.30;;;10.90;99.40;;;;;;5048822;28;20033;-73
2023/11/17 03:45:08;;;;;;;5.72;0.90;;;10.90;99.60;;;;;;5050838;28;20094;-73
2023/11/17 03:47:35;;;;;;;5.57;1.10;;;11.00;99.90;;;;;;5050097;28;20033;-71
2023/11/17 03:50:02;;;;;;;3.05;1.00;;;11.00;99.90;;;;;;5049589;28;20033;-72
2023/11/17 03:52:31;;;;;;;5.75;1.00;;;11.00;99.90;;;;;;5050828;28;20051;-73
2023/11/17 03:54:58;;;;;;;1.55;1.00;;;11.10;99.90;;;;;;5048901;28;20060;-71
2023/11/17 03:57:24;;;;;;;1.40;0.90;;;11.10;99.00;;;;;;5050870;28;20112;-71
2023/11/17 03:59:49;;;;;;;2.37;1.30;;;11.10;98.60;;;;;;5047839;28;20547;-73
2023/11/17 04:02:15;;;;;;;3.60;1.33;;;11.00;98.70;;;;;;5049032;28;20027;-74
2023/11/17 04:04:42;;;;;;;4.47;1.60;;;11.00;98.30;;;;;;5050640;28;20060;-73
2023/11/17 04:07:08;;;;;;;1.52;0.98;;;11.10;98.30;;;;;;5048778;28;20507;-72
2023/11/17 04:09:33;;;;;;;4.18;0.80;;;11.00;98.60;;;;;;5049224;28;20025;-73
2023/11/17 04:12:02;;;;;;;2.67;0.50;;;11.00;98.30;;;;;;5047898;28;20037;-72
2023/11/17 04:14:37;;;;;;;1.88;0.70;;;11.00;99.00;;;;;;5051138;28;20037;-76
2023/11/17 04:17:03;;;;;;;3.13;0.90;;;11.00;99.90;;;;;;5048915;28;20056;-74
2023/11/17 04:19:29;;;;;;;5.88;0.95;;;10.90;99.90;;;;;;5050968;28;20060;-73
2023/11/17 04:21:55;;;;;;;;;;;10.70;99.90;;;;;;5052130;28;20024;-72
2023/11/17 04:24:21;;;;;;;0.73;0.52;;;10.70;99.90;;;;;;5047481;28;19963;-72
2023/11/17 04:26:48;;;;;;;4.30;0.90;;;10.60;99.90;;;;;;5054159;28;20031;-74
2023/11/17 04:29:14;;;;;;;7.60;0.80;;;10.60;99.90;;;;;;5051267;28;20036;-75
2023/11/17 04:31:40;;;;;;;2.90;0.73;;;10.50;99.90;;;;;;5050865;28;20029;-73
2023/11/17 04:34:05;;;;;;;3.25;0.90;;;10.50;99.90;;;;;;5052625;28;20642;-73
2023/11/17 04:36:34;;;;;;;3.00;0.80;;;10.40;99.90;;;;;;5051817;28;20037;-73
2023/11/17 04:39:01;;;;;;;1.63;0.70;;;10.40;99.90;;;;;;5049047;28;20031;-72
2023/11/17 04:41:27;;;;;;;2.70;0.75;;;10.40;99.90;;;;;;5048560;28;20017;-74
2023/11/17 04:43:52;;;;;;;1.67;0.63;;;10.40;99.90;;;;;;5047594;28;20037;-75
2023/11/17 04:46:19;;;;;;;2.53;0.77;;;10.40;99.90;;;;;;5045472;28;20633;-73
2023/11/17 04:48:45;;;;;;;;;;;10.30;99.90;;;;;;5049393;28;20275;-73
2023/11/17 04:51:11;;;;;;;0.57;0.50;;;10.40;99.90;;;;;;5045571;28;21615;-72
2023/11/17 04:53:36;;;;;;;1.35;0.60;;;10.50;99.90;;;;;;5050178;28;20492;-74
2023/11/17 04:56:02;;;;;;;1.33;0.87;;;10.40;99.90;;;;;;5048069;28;20033;-73
2023/11/17 04:58:29;;;;;;;1.05;0.73;;;10.30;99.90;;;;;;5051970;28;20279;-73
2023/11/17 05:00:54;;;;;;;3.08;0.47;;;10.30;99.90;;;;;;5052070;28;20048;-73
2023/11/17 05:03:20;;;;;;;4.40;0.60;;;10.40;99.90;;;;;;5050161;28;20020;-74
2023/11/17 05:05:48;;;;;;;1.07;0.73;;;10.30;99.90;;;;;;5057103;28;20390;-73
2023/11/17 05:08:16;;;;;;;1.58;0.88;;;10.30;99.90;;;;;;5052308;28;20021;-73
2023/11/17 05:10:45;;;;;;;4.85;0.95;;;10.30;99.90;;;;;;5047111;28;20044;-71
2023/11/17 05:13:12;;;;;;;0.65;0.50;;;10.30;99.90;;;;;;5053090;28;20025;-74
2023/11/17 05:15:48;;;;;;;1.55;0.57;;;10.30;99.90;;;;;;5051214;28;20110;-75
2023/11/17 05:18:14;;;;;;;1.45;0.60;;;10.30;99.90;;;;;;5047450;28;20469;-75
2023/11/17 05:20:42;;;;;;;1.13;0.70;;;10.20;99.90;;;;;;5065256;28;20092;-75
2023/11/17 05:23:12;;;;;;;1.88;0.60;;;10.20;99.90;;;;;;5047138;28;20029;-76
2023/11/17 05:25:40;;;;;;;2.25;0.95;;;10.20;99.90;;;;;;5048460;28;20037;-75
2023/11/17 05:28:08;;;;;;;1.58;0.65;;;10.20;99.90;;;;;;5045806;28;20443;-75
2023/11/17 05:30:35;;;;;;;0.68;0.50;;;10.30;99.90;;;;;;5046425;28;20736;-73
2023/11/17 05:33:02;;;;;;;1.95;0.65;;;10.30;99.90;;;;;;5048443;28;20013;-74
2023/11/17 05:35:28;;;;;;;1.58;0.80;;;10.30;99.90;;;;;;5048151;28;20021;-72
2023/11/17 05:37:54;;;;;;;3.15;1.20;;;10.30;99.90;;;;;;5051437;28;20035;-74
2023/11/17 05:40:20;;;;;;;2.15;1.20;;;10.30;99.90;;;;;;5049840;28;20029;-73
2023/11/17 05:42:45;;;;;;;5.70;0.73;;;10.30;99.90;;;;;;5047405;28;20045;-73
2023/11/17 05:45:12;;;;;;;2.97;0.73;;;10.20;99.90;;;;;;5047069;28;20041;-74
2023/11/17 05:47:38;;;;;;;;;;;10.20;99.90;;;;;;5046713;28;20056;-75
2023/11/17 05:50:05;;;;;;;4.43;0.90;;;10.00;99.90;;;;;;5045466;28;20666;-75
2023/11/17 05:52:31;;;;;;;5.43;2.90;;;10.00;99.90;;;;;;5045797;28;20032;-73
2023/11/17 05:54:57;;;;;;;7.83;4.20;;;9.80;99.90;;;;;;5047462;28;20094;-73
2023/11/17 05:57:22;;;;;;;8.03;4.80;;;9.90;99.90;;;;;;5051060;28;20029;-72
2023/11/17 05:59:53;;;;;;;3.93;3.30;;;9.80;99.90;;;;;;5047042;28;20263;-72
2023/11/17 06:02:19;;;;;;;7.60;3.03;;;9.70;99.90;;;;;;5046045;28;20037;-73
2023/11/17 06:04:46;;;;;;;4.82;2.72;;;9.70;99.90;;;;;;5046155;28;20040;-75
2023/11/17 06:07:12;;;;;;;3.67;2.38;;;9.80;99.90;;;;;;5048785;28;20101;-72
2023/11/17 06:09:38;;;;;;;6.10;2.73;;;9.90;99.90;;;;;;5050553;28;20443;-75
2023/11/17 06:12:05;;;;;;;7.25;2.45;;;9.80;99.90;;;;;;5044568;28;20036;-72
2023/11/17 06:14:31;;;;;;;3.83;2.63;;;9.80;99.90;;;;;;5048850;28;20021;-76
2023/11/17 06:16:57;;;;;;;3.38;1.75;;;9.90;99.90;;;;;;5044289;28;20029;-74
2023/11/17 06:19:24;;;;;;;8.00;2.75;;;9.90;99.90;;;;;;5046046;28;20048;-74
2023/11/17 06:21:50;;;;;;;10.23;3.00;;;9.80;99.90;;;;;;5046777;28;20068;-75
2023/11/17 06:24:16;;;;;;;5.70;3.15;;;9.70;99.90;;;;;;5045857;28;20072;-75
2023/11/17 06:26:45;;;;;;;3.10;2.08;;;9.80;99.90;;;;;;5047242;28;20500;-74
2023/11/17 06:29:14;;;;;;;2.72;1.80;;;9.70;99.90;;;;;;5049475;28;20040;-73
2023/11/17 06:31:44;;;;;;;3.65;1.80;;;9.80;99.90;;;;;;5059202;28;20108;-73
2023/11/17 06:34:11;;;;;;;3.28;2.00;;;9.80;99.90;;;;;;5047113;28;20029;-71
2023/11/17 06:36:40;;;;;;;3.80;1.80;;;9.70;99.90;;;;;;5051755;28;20028;-71
2023/11/17 06:39:14;;;;;;;2.40;1.30;;;9.80;99.90;;;;;;5051621;28;20033;-71
2023/11/17 06:41:51;;;;;;;11.02;1.40;;;9.80;99.90;;;;;;5051184;28;20025;-72
2023/11/17 06:44:22;;;;;;;2.35;1.60;;;9.80;99.90;;;;;;5047096;28;20029;-72
2023/11/17 06:46:52;;;;;;;4.72;1.58;;;9.80;99.90;;;;;;5050485;28;20032;-71
2023/11/17 06:49:22;;;;;;;3.40;1.33;;;9.80;99.90;;;;;;5048927;28;20049;-71
2023/11/17 06:51:49;;;;;;;2.08;1.00;;;9.80;99.90;;;;;;5053545;28;20028;-71
2023/11/17 06:54:15;;;;;;;3.78;1.27;;;9.90;99.90;;;;;;5051130;28;20056;-70
2023/11/17 06:56:41;;;;;;;;;;;9.90;99.90;;;;;;5052822;28;20082;-69
2023/11/17 06:59:14;;;;;;;1.58;1.20;;;10.00;99.90;;;;;;5049253;28;19942;-69
2023/11/17 07:01:40;;;;;;;2.53;1.42;;;10.00;99.90;;;;;;5049084;28;20121;-70
2023/11/17 07:04:07;;;;;;;5.07;1.35;;;10.00;99.90;;;;;;5052701;28;20025;-68
2023/11/17 07:06:36;;;;;;;4.47;1.38;;;10.00;99.90;;;;;;5053107;28;20051;-69
2023/11/17 07:09:03;;;;;;;2.90;1.58;;;10.00;99.90;;;;;;5052968;28;20067;-69
2023/11/17 07:11:29;;;;;;;5.40;1.70;;;10.00;99.90;;;;;;5054130;28;20037;-69
2023/11/17 07:14:01;;;;;;;3.15;2.08;;;10.00;99.90;;;;;;5053166;28;20114;-71
2023/11/17 07:16:28;;;;;;;4.53;1.48;;;10.00;99.90;;;;;;5049314;28;20388;-67
2023/11/17 07:18:54;;;;;;;3.03;2.15;;;10.00;99.90;;;;;;5054958;28;20029;-76
2023/11/17 07:21:19;;;;;;;5.10;1.70;;;10.00;99.90;;;;;;5046853;28;20029;-71
2023/11/17 07:23:45;;;;;;;5.43;2.10;;;10.00;99.90;;;;;;5046783;28;20040;-71
2023/11/17 07:26:20;;;;;;;3.83;2.07;;;9.90;99.90;;;;;;5049115;28;20783;-71
2023/11/17 07:28:47;;;;;;;5.10;1.80;;;9.90;99.90;;;;;;5060595;28;20895;-71
2023/11/17 07:31:13;;;;;;;;;;;9.90;99.90;;;;;;5049307;28;20507;-72
2023/11/17 07:33:39;;;;;;;3.83;1.90;;;9.90;99.90;;;;;;5051591;28;19916;-72
2023/11/17 07:36:05;;;;;;;3.17;1.70;;;10.00;99.90;;;;;;5054127;28;20029;-71
2023/11/17 07:38:31;;;;;;;4.60;1.92;;;10.10;99.90;;;;;;5049818;28;20033;-71
2023/11/17 07:40:57;;;;;;;6.75;1.63;;;10.10;99.90;;;;;;5054113;28;20381;-71
2023/11/17 07:43:22;;;;;;;2.27;1.50;;;10.00;99.90;;;;;;5041087;28;20037;-71
2023/11/17 07:45:48;;;;;;;2.57;1.87;;;10.10;99.90;;;;;;5049874;28;20066;-71
2023/11/17 07:48:17;;;;;;;5.63;1.85;;;10.00;99.90;;;;;;5051400;28;20029;-71
2023/11/17 07:50:43;;;;;;;6.80;2.10;;;10.10;99.90;;;;;;5055931;28;20044;-73
2023/11/17 07:53:09;;;;;;;15.27;1.43;;;10.20;99.90;;;;;;5050195;28;20037;-72
2023/11/17 07:55:35;;;;;;;2.93;1.10;;;10.10;99.90;;;;;;5048371;28;20489;-72
2023/11/17 07:58:01;;;;;;;2.25;1.20;;;10.20;99.90;;;;;;5052098;28;20283;-71
2023/11/17 08:00:28;;;;;;;1.92;1.30;;;10.20;99.90;;;;;;5051598;28;20115;-71
2023/11/17 08:02:54;;;;;;;3.38;1.40;;;10.20;99.90;;;;;;5052479;28;20029;-72
2023/11/17 08:05:20;;;;;;;2.80;1.13;;;10.20;99.90;;;;;;5051409;28;20067;-71
2023/11/17 08:07:46;;;;;;;3.42;1.33;;;10.20;99.90;;;;;;5049817;28;20273;-71
2023/11/17 08:10:13;;;;;;;4.15;1.08;;;10.20;99.90;;;;;;5054370;28;20036;-70
2023/11/17 08:12:39;;;;;;;6.60;0.90;;;10.20;99.90;;;;;;5050008;28;20071;-71
2023/11/17 08:15:06;;;;;;;1.65;0.60;;;10.20;99.90;;;;;;5048101;28;20122;-70
2023/11/17 08:17:31;;;;;;;2.90;0.60;;;10.20;99.90;;;;;;5048553;28;20266;-71
2023/11/17 08:19:59;;;;;;;2.07;1.20;;;10.20;99.90;;;;;;5051046;28;20037;-71
2023/11/17 08:22:29;;;;;;;1.30;0.70;;;10.20;99.90;;;;;;5048234;28;20017;-73
2023/11/17 08:24:56;;;;;;;3.95;0.77;;;10.30;99.90;;;;;;5051684;28;20036;-71
2023/11/17 08:27:21;;;;;;;4.25;1.08;;;10.30;99.90;;;;;;5050615;28;20507;-71
2023/11/17 08:29:47;;;;;;;2.70;0.90;;;10.30;99.90;;;;;;5054492;28;20021;-71
2023/11/17 08:32:13;;;;;;;2.30;0.87;;;10.30;99.90;;;;;;5047213;28;20311;-79
2023/11/17 08:34:39;;;;;;;5.05;1.35;;;10.40;99.90;;;;;;5040901;28;20118;-75
2023/11/17 08:37:08;;;;;;;1.17;0.90;;;10.50;99.90;;;;;;5050237;28;20162;-69
2023/11/17 08:39:34;;;;;;;3.15;0.60;;;10.50;99.90;;;;;;5046159;28;20550;-73
2023/11/17 08:42:00;;;;;;;3.17;1.30;;;10.40;99.90;;;;;;5041536;28;20112;-69
2023/11/17 08:44:29;;;;;;;2.38;0.90;;;10.40;99.90;;;;;;5050958;28;20033;-72
2023/11/17 08:46:54;;;;;;;2.90;0.90;;;10.40;99.90;;;;;;5043189;28;20509;-72
2023/11/17 08:49:23;;;;;;;3.10;1.10;;;10.50;99.90;;;;;;5048277;28;20039;-71
2023/11/17 08:51:48;;;;;;;1.55;1.10;;;10.50;99.90;;;;;;5051593;28;20029;-69
2023/11/17 08:54:16;;;;;;;1.08;0.70;;;10.50;99.90;;;;;;5049352;28;20052;-72
2023/11/17 08:56:43;;;;;;;1.10;0.70;;;10.50;99.90;;;;;;5048339;28;20087;-74
2023/11/17 08:59:08;;;;;;;1.83;0.73;;;10.40;99.90;;;;;;5050831;28;20126;-75
2023/11/17 09:01:34;;;;;;;4.70;1.33;;;10.40;99.90;;;;;;5048291;28;20049;-72
2023/11/17 09:03:59;;;;;;;1.80;0.73;;;10.20;99.90;;;;;;5049155;28;20400;-74
2023/11/17 09:06:25;;;;;;;6.60;0.90;;;10.30;99.90;;;;;;5044760;28;20056;-74
2023/11/17 09:08:51;;;;;;;1.40;0.80;;;10.70;99.90;;;;;;5048468;28;20029;-73
2023/11/17 09:11:17;;;;;;;2.30;0.63;;;11.30;99.90;;;;;;5048446;28;20036;-73
2023/11/17 09:13:43;;;;;;;0.93;0.77;;;11.60;99.90;;;;;;5055812;28;20377;-73
2023/11/17 09:16:09;;;;;;;6.18;3.60;;;11.70;99.90;;;;;;5047452;28;20021;-71
2023/11/17 09:18:35;;;;;;;7.28;3.22;;;11.60;99.90;;;;;;5050356;28;20033;-74
2023/11/17 09:21:05;;;;;;;2.67;1.50;;;11.30;99.90;;;;;;5050059;28;20102;-73
2023/11/17 09:23:34;;;;;;;2.75;1.40;;;11.20;99.90;;;;;;5053843;28;20041;-73
2023/11/17 09:26:03;;;;;;;2.47;1.20;;;11.10;99.90;;;;;;5045129;28;20480;-73
2023/11/17 09:28:29;;;;;;;7.80;2.53;;;11.10;99.90;;;;;;5050449;28;20522;-74
2023/11/17 09:30:56;;;;;;;4.82;1.95;;;11.10;99.90;;;;;;5052145;28;20449;-74
2023/11/17 09:33:22;;;;;;;1.55;1.13;;;11.00;99.90;;;;;;5047902;28;20021;-72
2023/11/17 09:35:48;;;;;;;3.15;1.50;;;11.10;99.90;;;;;;5046440;28;20091;-70
2023/11/17 09:38:16;;;;;;;3.38;1.08;;;11.20;99.90;;;;;;5047594;28;20040;-76
2023/11/17 09:40:42;;;;;;;2.42;1.88;;;11.40;99.90;;;;;;5049752;28;20445;-73
2023/11/17 09:43:26;;;;;;;1.95;1.40;;;11.30;99.90;;;;;;5051873;28;20100;-72
2023/11/17 09:45:54;;;;;;;1.95;1.13;;;11.30;98.50;;;;;;5047777;28;20134;-73
2023/11/17 09:48:21;;;;;;;2.03;1.40;;;11.00;99.40;;;;;;5046786;28;20021;-74
2023/11/17 09:50:50;;;;;;;2.10;1.05;;;11.10;99.10;;;;;;5051290;28;20099;-71
2023/11/17 09:53:17;;;;;;;1.27;0.80;;;11.20;99.60;;;;;;5054071;28;20068;-74
2023/11/17 09:55:44;;;;;;;5.00;1.52;;;11.20;99.90;;;;;;5045907;28;20386;-75
2023/11/17 09:58:12;;;;;;;4.93;1.55;;;11.30;97.80;;;;;;5046314;28;20104;-78
2023/11/17 10:00:40;;;;;;;4.97;1.65;;;11.50;99.00;;;;;;5046689;28;20496;-76
2023/11/17 10:03:09;;;;;;;1.45;0.85;;;11.70;99.10;;;;;;5049802;28;20166;-73
2023/11/17 10:05:36;;;;;;;2.10;0.95;;;11.40;95.80;;;;;;5052095;28;20045;-79
2023/11/17 10:08:11;;;;;;;5.55;0.82;;;11.70;97.70;;;;;;5047347;28;20033;-70
2023/11/17 10:10:45;;;;;;;4.72;1.00;;;11.80;96.80;;;;;;5048259;28;20025;-69
2023/11/17 10:13:12;;;;;;;2.35;0.88;;;11.70;95.10;;;;;;5047562;28;20028;-73
2023/11/17 10:15:46;;;;;;;3.28;0.80;;;11.40;94.40;;;;;;5050139;28;20033;-71
2023/11/17 10:18:16;;;;;;;2.33;0.80;;;11.60;95.20;;;;;;5044996;28;20120;-69
2023/11/17 10:20:43;;;;;;;2.97;1.02;;;11.60;93.90;;;;;;5045641;28;20040;-72
2023/11/17 10:23:09;;;;;;;;;;;12.00;93.50;;;;;;5046605;28;20037;-70
2023/11/17 10:25:35;;;;;;;1.30;0.80;;;12.40;92.40;;;;;;5045955;28;20435;-70
2023/11/17 10:28:05;;;;;;;2.08;0.98;;;12.40;92.50;;;;;;5047216;28;20033;-69
2023/11/17 10:30:41;;;;;;;3.45;1.38;;;12.50;94.10;;;;;;5048894;28;20033;-74
2023/11/17 10:33:13;;;;;;;1.38;0.80;;;12.60;93.40;;;;;;5046926;28;20018;-74
2023/11/17 10:36:00;;;;;;;1.80;1.00;;;12.50;92.00;;;;;;5046987;28;20584;-72
2023/11/17 10:38:26;;;;;;;3.17;0.80;;;12.30;91.00;;;;;;5052168;28;20029;-75
2023/11/17 10:40:51;;;;;;;2.97;0.90;;;12.60;92.60;;;;;;5051052;28;20095;-73
2023/11/17 10:43:17;;;;;;;1.10;0.70;;;12.70;93.30;;;;;;5048326;28;20345;-82
2023/11/17 10:45:45;;;;;;;7.87;1.73;;;12.30;91.60;;;;;;5054983;28;20598;-71
2023/11/17 10:48:16;;;;;;;1.83;0.68;;;12.60;92.20;;;;;;5047194;28;20056;-76
2023/11/17 10:50:43;;;;;;;6.47;1.70;;;12.70;89.00;;;;;;5061969;28;20029;-72
2023/11/17 10:53:19;;;;;;;2.10;0.90;;;12.90;91.30;;;;;;5048155;28;20036;-77
2023/11/17 10:55:46;;;;;;;2.23;0.87;;;12.70;91.10;;;;;;5042055;28;20025;-74
2023/11/17 10:58:15;;;;;;;3.72;0.90;;;12.90;91.90;;;;;;5050375;28;20285;-73
2023/11/17 11:00:46;;;;;;;2.13;1.00;;;12.60;86.40;;;;;;5053250;28;20060;-74
2023/11/17 11:03:15;;;;;;;10.02;5.00;;;12.70;91.00;;;;;;5049725;28;20025;-77
2023/11/17 11:05:43;;;;;;;2.80;0.95;;;12.70;90.20;;;;;;5044655;28;20124;-79
2023/11/17 11:08:17;;;;;;;4.32;1.85;;;12.60;90.70;;;;;;5045343;28;20071;-78
2023/11/17 11:10:56;;;;;;;2.58;0.60;;;12.60;91.20;;;;;;5043382;28;20459;-77
2023/11/17 11:13:29;;;;;;;1.10;0.60;;;12.50;89.20;;;;;;5046357;28;20037;-79
2023/11/17 11:16:24;;;;;;;3.28;0.63;;;12.20;90.60;;;;;;5043773;28;20173;-77
2023/11/17 11:18:54;;;;;;;3.10;0.63;;;12.30;87.50;;;;;;5044081;28;20745;-75
2023/11/17 11:21:24;;;;;;;0.95;0.50;;;12.10;87.80;;;;;;5045986;28;20021;-75
2023/11/17 11:23:50;;;;;;;1.80;0.60;;;12.30;87.40;;;;;;5051278;28;20025;-75
2023/11/17 11:26:17;;;;;;;1.00;0.70;;;12.50;87.10;;;;;;5057640;28;20048;-80
2023/11/17 11:28:45;;;;;;;1.15;0.60;;;12.60;89.20;;;;;;5052087;28;20032;-79
2023/11/17 11:31:15;;;;;;;5.00;1.08;;;12.80;88.10;;;;;;5050647;28;20365;-74
2023/11/17 11:33:41;;;;;;;2.45;0.77;;;13.00;89.90;;;;;;5052386;28;20032;-76
2023/11/17 11:36:10;;;;;;;;;;;12.80;90.40;;;;;;5048265;28;20036;-75
2023/11/17 11:38:37;;;;;;;1.33;0.55;;;12.80;87.10;;;;;;5050042;28;19917;-74
2023/11/17 11:41:03;;;;;;;;;;;12.90;88.30;;;;;;5048833;28;20045;-78
2023/11/17 11:43:30;;;;;;;1.17;0.60;;;12.60;89.00;;;;;;5050403;28;19908;-80
2023/11/17 11:45:56;;;;;;;2.20;0.75;;;12.30;88.40;;;;;;5047372;28;20049;-76
2023/11/17 11:48:25;;;;;;;3.28;0.68;;;12.10;88.60;;;;;;5047179;28;20033;-75
2023/11/17 11:50:54;;;;;;;1.80;0.82;;;11.80;92.10;;;;;;5048158;28;20130;-75
2023/11/17 11:53:50;;;;;;;4.53;0.98;;;11.70;93.70;;;;;;5050291;28;20032;-73
2023/11/17 11:56:18;;;;;;;2.33;0.80;;;11.60;91.20;;;;;;5046165;28;20184;-70
2023/11/17 11:58:49;;;;;;;2.85;0.95;;;11.80;90.50;;;;;;5048099;28;20037;-70
2023/11/17 12:01:16;;;;;;;1.45;0.70;;;12.10;91.90;;;;;;5051888;28;20036;-72
2023/11/17 12:03:46;;;;;;;4.65;2.28;;;12.30;90.80;;;;;;5054377;28;20085;-71
2023/11/17 12:06:22;;;;;;;2.90;1.27;;;12.30;90.50;;;;;;5051765;28;20048;-73
2023/11/17 12:09:08;;;;;;;2.25;1.00;;;11.80;87.10;;;;;;5072131;28;20020;-73
2023/11/17 12:11:44;;;;;;;3.17;1.05;;;11.50;91.00;;;;;;5047209;28;20028;-76
2023/11/17 12:14:21;;;;;;;2.33;1.10;;;11.50;88.90;;;;;;5053561;28;20324;-79
2023/11/17 12:16:55;;;;;;;1.60;0.80;;;11.40;90.10;;;;;;5048209;28;20056;-73
2023/11/17 12:19:31;;;;;;;1.15;0.80;;;11.60;89.70;;;;;;5047491;28;20033;-75
2023/11/17 12:22:01;;;;;;;1.10;0.80;;;11.60;91.30;;;;;;5047841;28;20409;-74
2023/11/17 12:24:28;;;;;;;6.93;1.00;;;11.60;90.30;;;;;;5050377;28;20037;-82
2023/11/17 12:39:40;;;;;;;1.17;0.98;;;12.10;90.50;;;;;;5060297;28;20826;-68
2023/11/17 12:42:15;;;;;;;1.73;0.98;;;12.00;90.60;;;;;;5046399;28;20123;-68
2023/11/17 12:44:40;;;;;;;1.77;1.13;;;11.90;90.40;;;;;;5047725;28;20056;-68
2023/11/17 12:47:09;;;;;;;2.67;1.00;;;12.00;90.90;;;;;;5041766;28;20049;-68
2023/11/17 12:49:35;;;;;;;2.13;0.77;;;12.00;90.30;;;;;;5043119;28;20045;-68
2023/11/17 12:52:07;;;;;;;4.83;1.83;;;12.10;90.70;;;;;;5045512;28;20573;-69
2023/11/17 12:54:33;;;;;;;4.22;1.13;;;11.90;90.90;;;;;;5052900;28;20697;-69
2023/11/17 12:57:01;;;;;;;5.13;0.90;;;11.70;90.50;;;;;;5051066;28;20028;-70
2023/11/17 12:59:27;;;;;;;1.65;0.93;;;11.70;89.40;;;;;;5047195;28;20029;-68
2023/11/17 13:01:53;;;;;;;2.33;1.10;;;11.80;89.00;;;;;;5046096;28;20039;-68
2023/11/17 13:04:20;;;;;;;2.50;0.85;;;12.10;89.60;;;;;;5049360;28;20025;-69
2023/11/17 13:06:46;;;;;;;3.70;0.88;;;12.20;87.80;;;;;;5047641;28;20035;-69